sensor_id;sensor_type;location;lat;lon;timestamp;pressure;altitude;pressure_sealevel;temperature;humidity
76687;BME280;65615;47.378;19.344;2023-05-24T04:23:24;99880.75;;;16.09;100.00
76687;BME280;65615;47.378;19.344;2023-05-24T04:27:28;99884.09;;;16.31;100.00
76687;BME280;65615;47.378;19.344;2023-05-24T04:31:31;99894.59;;;16.52;100.00
76687;BME280;65615;47.378;19.344;2023-05-24T04:35:36;99895.03;;;16.62;100.00
76687;BME280;65615;47.378;19.344;2023-05-24T04:39:39;99897.09;;;16.73;100.00
76687;BME280;65615;47.378;19.344;2023-05-24T04:43:43;99901.78;;;16.84;100.00
76687;BME280;65615;47.378;19.344;2023-05-24T04:47:46;99890.28;;;16.84;100.00
76687;BME280;65615;47.378;19.344;2023-05-24T04:51:49;99895.00;;;16.88;100.00
76687;BME280;65615;47.378;19.344;2023-05-24T04:55:54;99900.53;;;17.00;100.00
76687;BME280;65615;47.378;19.344;2023-05-24T04:59:57;99900.53;;;17.13;100.00
76687;BME280;65615;47.378;19.344;2023-05-24T05:04:01;99908.06;;;17.36;100.00
76687;BME280;65615;47.378;19.344;2023-05-24T05:08:06;99905.81;;;17.39;100.00
76687;BME280;65615;47.378;19.344;2023-05-24T05:12:09;99917.72;;;17.37;100.00
76687;BME280;65615;47.378;19.344;2023-05-24T05:16:12;99908.69;;;17.51;100.00
76687;BME280;65615;47.378;19.344;2023-05-24T05:20:15;99917.81;;;17.81;100.00
76687;BME280;65615;47.378;19.344;2023-05-24T05:24:30;99918.34;;;17.96;100.00
76687;BME280;65615;47.378;19.344;2023-05-24T05:28:34;99918.47;;;18.14;100.00
76687;BME280;65615;47.378;19.344;2023-05-24T05:32:55;99917.81;;;18.19;100.00
76687;BME280;65615;47.378;19.344;2023-05-24T05:36:58;99920.62;;;18.30;100.00
76687;BME280;65615;47.378;19.344;2023-05-24T05:41:01;99925.84;;;18.56;100.00
76687;BME280;65615;47.378;19.344;2023-05-24T05:45:15;99930.63;;;18.79;100.00
76687;BME280;65615;47.378;19.344;2023-05-24T05:49:26;99934.66;;;18.88;100.00
76687;BME280;65615;47.378;19.344;2023-05-24T05:53:34;99945.34;;;19.13;100.00
76687;BME280;65615;47.378;19.344;2023-05-24T05:57:43;99951.62;;;19.25;100.00
76687;BME280;65615;47.378;19.344;2023-05-24T06:01:46;99946.44;;;19.30;100.00
76687;BME280;65615;47.378;19.344;2023-05-24T06:05:52;99947.66;;;19.52;100.00
76687;BME280;65615;47.378;19.344;2023-05-24T06:09:55;99945.34;;;19.37;100.00
76687;BME280;65615;47.378;19.344;2023-05-24T06:13:59;99953.28;;;19.26;100.00
76687;BME280;65615;47.378;19.344;2023-05-24T06:18:01;99953.47;;;19.49;100.00
76687;BME280;65615;47.378;19.344;2023-05-24T06:22:05;99959.44;;;19.69;100.00
76687;BME280;65615;47.378;19.344;2023-05-24T06:26:08;99956.37;;;20.50;100.00
76687;BME280;65615;47.378;19.344;2023-05-24T06:30:14;99954.78;;;20.72;100.00
76687;BME280;65615;47.378;19.344;2023-05-24T06:34:21;99973.66;;;20.54;100.00
76687;BME280;65615;47.378;19.344;2023-05-24T06:38:24;99963.56;;;20.38;100.00
76687;BME280;65615;47.378;19.344;2023-05-24T06:42:27;99967.16;;;20.73;100.00
76687;BME280;65615;47.378;19.344;2023-05-24T06:46:31;99976.84;;;21.15;100.00
76687;BME280;65615;47.378;19.344;2023-05-24T06:50:35;99972.88;;;21.52;100.00
76687;BME280;65615;47.378;19.344;2023-05-24T06:54:42;99977.53;;;21.34;100.00
76687;BME280;65615;47.378;19.344;2023-05-24T06:58:45;99984.31;;;21.13;98.94
76687;BME280;65615;47.378;19.344;2023-05-24T07:02:49;99981.91;;;20.82;100.00
76687;BME280;65615;47.378;19.344;2023-05-24T07:06:52;99982.56;;;21.30;100.00
76687;BME280;65615;47.378;19.344;2023-05-24T07:10:56;99990.41;;;21.66;96.37
76687;BME280;65615;47.378;19.344;2023-05-24T07:14:59;99985.25;;;21.76;95.30
76687;BME280;65615;47.378;19.344;2023-05-24T07:19:03;99991.25;;;22.07;96.79
76687;BME280;65615;47.378;19.344;2023-05-24T07:23:06;99990.72;;;22.33;93.05
76687;BME280;65615;47.378;19.344;2023-05-24T07:27:09;99993.44;;;22.21;94.65
76687;BME280;65615;47.378;19.344;2023-05-24T07:31:12;99997.34;;;22.42;93.57
76687;BME280;65615;47.378;19.344;2023-05-24T07:35:15;99999.09;;;22.48;91.28
76687;BME280;65615;47.378;19.344;2023-05-24T07:39:18;99997.56;;;22.52;91.66
76687;BME280;65615;47.378;19.344;2023-05-24T07:43:22;100011.28;;;22.95;88.35
76687;BME280;65615;47.378;19.344;2023-05-24T07:47:26;99996.41;;;22.76;88.60
76687;BME280;65615;47.378;19.344;2023-05-24T07:51:32;100007.72;;;23.06;84.41
76687;BME280;65615;47.378;19.344;2023-05-24T07:55:35;100015.53;;;23.74;82.90
76687;BME280;65615;47.378;19.344;2023-05-24T07:59:38;100018.19;;;23.52;82.10
76687;BME280;65615;47.378;19.344;2023-05-24T08:03:41;100017.09;;;23.92;81.06
76687;BME280;65615;47.378;19.344;2023-05-24T08:07:45;100008.97;;;24.30;75.30
76687;BME280;65615;47.378;19.344;2023-05-24T08:11:48;100022.25;;;24.58;78.87
76687;BME280;65615;47.378;19.344;2023-05-24T08:15:51;100015.62;;;24.44;78.27
76687;BME280;65615;47.378;19.344;2023-05-24T08:19:54;100021.03;;;24.01;76.07
76687;BME280;65615;47.378;19.344;2023-05-24T08:23:57;100020.91;;;24.34;74.09
76687;BME280;65615;47.378;19.344;2023-05-24T08:28:01;100018.88;;;24.46;73.56
76687;BME280;65615;47.378;19.344;2023-05-24T08:32:05;100031.09;;;24.27;74.52
76687;BME280;65615;47.378;19.344;2023-05-24T08:36:11;100029.19;;;25.29;75.04
76687;BME280;65615;47.378;19.344;2023-05-24T08:40:14;100033.78;;;25.33;69.61
76687;BME280;65615;47.378;19.344;2023-05-24T08:44:17;100038.31;;;26.01;71.86
76687;BME280;65615;47.378;19.344;2023-05-24T08:48:21;100032.28;;;26.31;67.97
76687;BME280;65615;47.378;19.344;2023-05-24T08:52:25;100042.88;;;25.91;69.22
76687;BME280;65615;47.378;19.344;2023-05-24T08:56:29;100050.91;;;25.76;66.84
76687;BME280;65615;47.378;19.344;2023-05-24T09:00:32;100051.06;;;25.59;66.15
76687;BME280;65615;47.378;19.344;2023-05-24T09:04:37;100049.56;;;25.42;67.96
76687;BME280;65615;47.378;19.344;2023-05-24T09:08:42;100065.41;;;25.60;69.82
76687;BME280;65615;47.378;19.344;2023-05-24T09:12:50;100057.37;;;25.06;69.13
76687;BME280;65615;47.378;19.344;2023-05-24T09:16:55;100052.53;;;25.08;71.90
76687;BME280;65615;47.378;19.344;2023-05-24T09:21:00;100063.91;;;25.10;69.94
76687;BME280;65615;47.378;19.344;2023-05-24T09:25:05;100059.91;;;25.50;67.94
76687;BME280;65615;47.378;19.344;2023-05-24T09:29:13;100058.22;;;26.22;67.78
76687;BME280;65615;47.378;19.344;2023-05-24T09:33:16;100054.09;;;26.71;64.28
76687;BME280;65615;47.378;19.344;2023-05-24T09:37:30;100060.53;;;25.62;67.42
76687;BME280;65615;47.378;19.344;2023-05-24T09:41:37;100058.22;;;24.85;72.05
76687;BME280;65615;47.378;19.344;2023-05-24T09:45:44;100065.28;;;26.28;68.89
76687;BME280;65615;47.378;19.344;2023-05-24T09:49:54;100062.22;;;25.04;70.56
76687;BME280;65615;47.378;19.344;2023-05-24T09:54:00;100058.25;;;25.85;70.73
76687;BME280;65615;47.378;19.344;2023-05-24T09:58:07;100064.81;;;25.53;68.63
76687;BME280;65615;47.378;19.344;2023-05-24T10:02:11;100063.94;;;26.31;67.25
76687;BME280;65615;47.378;19.344;2023-05-24T10:06:15;100055.00;;;26.30;61.19
76687;BME280;65615;47.378;19.344;2023-05-24T10:10:18;100061.72;;;26.79;63.05
76687;BME280;65615;47.378;19.344;2023-05-24T10:14:22;100055.03;;;26.40;63.77
76687;BME280;65615;47.378;19.344;2023-05-24T10:18:25;100056.84;;;26.97;66.37
76687;BME280;65615;47.378;19.344;2023-05-24T10:22:28;100065.94;;;26.55;62.41
76687;BME280;65615;47.378;19.344;2023-05-24T10:26:32;100058.47;;;27.18;58.26
76687;BME280;65615;47.378;19.344;2023-05-24T10:30:37;100067.16;;;27.80;60.82
76687;BME280;65615;47.378;19.344;2023-05-24T10:34:45;100060.34;;;27.93;53.85
76687;BME280;65615;47.378;19.344;2023-05-24T10:38:49;100051.44;;;27.27;55.48
76687;BME280;65615;47.378;19.344;2023-05-24T10:42:55;100049.78;;;27.06;61.98
76687;BME280;65615;47.378;19.344;2023-05-24T10:51:44;100051.47;;;27.57;54.74
76687;BME280;65615;47.378;19.344;2023-05-24T10:59:56;100049.28;;;27.44;58.78
76687;BME280;65615;47.378;19.344;2023-05-24T11:04:15;100054.91;;;28.03;57.13
76687;BME280;65615;47.378;19.344;2023-05-24T11:08:32;100048.97;;;28.70;56.50
76687;BME280;65615;47.378;19.344;2023-05-24T11:12:37;100045.88;;;28.22;54.16
76687;BME280;65615;47.378;19.344;2023-05-24T11:16:44;100046.53;;;27.74;56.21
76687;BME280;65615;47.378;19.344;2023-05-24T11:20:49;100037.16;;;28.84;52.46
76687;BME280;65615;47.378;19.344;2023-05-24T11:24:53;100035.12;;;27.77;57.18
76687;BME280;65615;47.378;19.344;2023-05-24T11:28:59;100030.87;;;28.89;53.20
76687;BME280;65615;47.378;19.344;2023-05-24T11:33:16;100024.78;;;29.64;52.89
76687;BME280;65615;47.378;19.344;2023-05-24T11:37:20;100024.94;;;28.82;53.62
76687;BME280;65615;47.378;19.344;2023-05-24T11:41:40;100017.72;;;29.39;51.71
76687;BME280;65615;47.378;19.344;2023-05-24T11:45:45;100016.06;;;28.66;54.34
76687;BME280;65615;47.378;19.344;2023-05-24T11:49:51;100017.22;;;27.76;55.02
76687;BME280;65615;47.378;19.344;2023-05-24T11:53:55;100021.59;;;27.52;53.85
76687;BME280;65615;47.378;19.344;2023-05-24T11:57:58;100006.84;;;29.01;54.49
76687;BME280;65615;47.378;19.344;2023-05-24T12:02:04;100003.59;;;28.99;46.61
76687;BME280;65615;47.378;19.344;2023-05-24T12:06:08;100007.56;;;29.45;49.90
76687;BME280;65615;47.378;19.344;2023-05-24T12:10:11;100005.59;;;28.34;51.67
76687;BME280;65615;47.378;19.344;2023-05-24T12:14:39;100002.72;;;29.42;49.64
76687;BME280;65615;47.378;19.344;2023-05-24T12:18:42;100004.25;;;27.13;53.53
76687;BME280;65615;47.378;19.344;2023-05-24T12:23:11;100004.50;;;27.26;55.56
76687;BME280;65615;47.378;19.344;2023-05-24T12:27:17;100002.41;;;28.27;50.32
76687;BME280;65615;47.378;19.344;2023-05-24T12:31:25;99996.66;;;29.16;47.12
76687;BME280;65615;47.378;19.344;2023-05-24T12:35:29;99990.38;;;29.21;46.92
76687;BME280;65615;47.378;19.344;2023-05-24T12:39:37;99989.97;;;29.90;47.62
76687;BME280;65615;47.378;19.344;2023-05-24T12:43:41;99986.37;;;30.37;46.96
76687;BME280;65615;47.378;19.344;2023-05-24T12:47:46;99980.13;;;30.55;45.48
76687;BME280;65615;47.378;19.344;2023-05-24T12:51:50;99980.31;;;28.88;46.25
76687;BME280;65615;47.378;19.344;2023-05-24T12:55:53;99981.91;;;28.45;51.87
76687;BME280;65615;47.378;19.344;2023-05-24T12:59:57;99971.91;;;29.70;45.29
76687;BME280;65615;47.378;19.344;2023-05-24T13:04:00;99967.97;;;30.29;46.98
76687;BME280;65615;47.378;19.344;2023-05-24T13:08:03;99962.87;;;29.51;47.03
76687;BME280;65615;47.378;19.344;2023-05-24T13:12:07;99961.25;;;27.80;50.36
76687;BME280;65615;47.378;19.344;2023-05-24T13:16:11;99960.75;;;27.73;50.95
76687;BME280;65615;47.378;19.344;2023-05-24T13:20:14;99959.97;;;29.09;47.65
76687;BME280;65615;47.378;19.344;2023-05-24T13:24:17;99961.63;;;29.62;48.51
76687;BME280;65615;47.378;19.344;2023-05-24T13:28:21;99959.38;;;30.16;47.77
76687;BME280;65615;47.378;19.344;2023-05-24T13:32:24;99956.84;;;30.44;48.34
76687;BME280;65615;47.378;19.344;2023-05-24T13:36:30;99956.28;;;28.95;48.06
76687;BME280;65615;47.378;19.344;2023-05-24T13:40:33;99952.38;;;28.33;51.37
76687;BME280;65615;47.378;19.344;2023-05-24T13:44:45;99955.78;;;28.05;58.33
76687;BME280;65615;47.378;19.344;2023-05-24T13:48:48;99947.84;;;26.79;60.97
76687;BME280;65615;47.378;19.344;2023-05-24T13:52:51;99945.13;;;26.79;63.13
76687;BME280;65615;47.378;19.344;2023-05-24T13:56:54;99945.06;;;26.44;62.67
76687;BME280;65615;47.378;19.344;2023-05-24T14:00:59;99943.44;;;26.43;61.69
76687;BME280;65615;47.378;19.344;2023-05-24T14:05:02;99945.94;;;25.88;59.43
76687;BME280;65615;47.378;19.344;2023-05-24T14:09:25;99945.69;;;25.94;59.42
76687;BME280;65615;47.378;19.344;2023-05-24T14:13:28;99949.34;;;27.76;55.38
76687;BME280;65615;47.378;19.344;2023-05-24T14:17:34;99945.25;;;27.84;52.55
76687;BME280;65615;47.378;19.344;2023-05-24T14:21:37;99943.66;;;29.09;49.27
76687;BME280;65615;47.378;19.344;2023-05-24T14:25:42;99939.00;;;29.43;47.64
76687;BME280;65615;47.378;19.344;2023-05-24T14:29:48;99949.88;;;29.67;45.80
76687;BME280;65615;47.378;19.344;2023-05-24T14:33:57;99945.28;;;29.10;49.83
76687;BME280;65615;47.378;19.344;2023-05-24T14:38:00;99936.34;;;27.58;53.17
76687;BME280;65615;47.378;19.344;2023-05-24T14:42:03;99942.88;;;26.36;55.29
76687;BME280;65615;47.378;19.344;2023-05-24T14:46:08;99953.25;;;27.05;53.78
76687;BME280;65615;47.378;19.344;2023-05-24T14:50:11;99944.84;;;26.86;54.15
76687;BME280;65615;47.378;19.344;2023-05-24T14:54:14;99950.53;;;27.25;53.39
76687;BME280;65615;47.378;19.344;2023-05-24T14:58:17;99949.47;;;26.80;56.64
76687;BME280;65615;47.378;19.344;2023-05-24T15:02:20;99950.25;;;26.61;56.86
76687;BME280;65615;47.378;19.344;2023-05-24T15:06:23;99942.34;;;26.44;55.84
76687;BME280;65615;47.378;19.344;2023-05-24T15:10:26;99952.09;;;27.56;53.00
76687;BME280;65615;47.378;19.344;2023-05-24T15:14:29;99947.47;;;27.66;51.70
76687;BME280;65615;47.378;19.344;2023-05-24T15:18:32;99943.69;;;28.31;50.31
76687;BME280;65615;47.378;19.344;2023-05-24T15:22:35;99950.56;;;28.63;49.05
76687;BME280;65615;47.378;19.344;2023-05-24T15:26:38;99946.84;;;28.87;49.69
76687;BME280;65615;47.378;19.344;2023-05-24T15:30:44;99948.72;;;28.92;48.86
76687;BME280;65615;47.378;19.344;2023-05-24T15:34:49;99946.03;;;27.89;49.59
76687;BME280;65615;47.378;19.344;2023-05-24T15:38:52;99956.53;;;28.65;49.73
76687;BME280;65615;47.378;19.344;2023-05-24T15:42:56;99965.41;;;27.62;52.61
76687;BME280;65615;47.378;19.344;2023-05-24T15:46:58;99965.72;;;27.31;50.38
